createdAt,value
2023-05-10T00:01:42.603Z,98.30
2023-05-10T00:04:09.379Z,98.29
2023-05-10T00:06:36.364Z,98.38
2023-05-10T00:09:03.308Z,98.29
2023-05-10T00:11:30.052Z,98.29
2023-05-10T00:13:56.888Z,98.27
2023-05-10T00:16:23.854Z,98.22
2023-05-10T00:18:50.704Z,98.24
2023-05-10T00:21:20.902Z,98.10
2023-05-10T00:23:47.638Z,98.20
2023-05-10T00:26:14.868Z,98.37
2023-05-10T00:28:41.562Z,98.35
2023-05-10T00:31:08.350Z,98.45
2023-05-10T00:33:35.048Z,98.42
2023-05-10T00:36:01.816Z,98.46
2023-05-10T00:38:28.588Z,98.50
2023-05-10T00:40:55.701Z,98.44
2023-05-10T00:43:22.672Z,98.54
2023-05-10T00:45:49.894Z,98.49
2023-05-10T00:48:16.724Z,98.70
2023-05-10T00:50:44.390Z,98.59
2023-05-10T00:53:11.560Z,98.47
2023-05-10T00:55:38.837Z,98.42
2023-05-10T00:58:05.894Z,98.41
2023-05-10T01:00:34.573Z,98.39
2023-05-10T01:03:02.002Z,98.29
2023-05-10T01:05:28.952Z,98.42
2023-05-10T01:07:55.701Z,98.61
2023-05-10T01:10:22.665Z,98.68
2023-05-10T01:12:49.747Z,98.52
2023-05-10T01:15:17.408Z,98.54
2023-05-10T01:17:47.878Z,98.57
2023-05-10T01:20:16.542Z,98.52
2023-05-10T01:23:08.293Z,98.59
2023-05-10T01:26:08.620Z,98.49
2023-05-10T01:29:12.868Z,98.51
2023-05-10T01:32:01.460Z,98.42
2023-05-10T01:34:37.199Z,98.44
2023-05-10T01:37:12.334Z,98.30
2023-05-10T01:39:53.307Z,98.19
2023-05-10T01:42:27.264Z,97.91
2023-05-10T01:45:08.288Z,97.55
2023-05-10T01:47:50.176Z,97.21
2023-05-10T01:50:21.204Z,97.55
2023-05-10T01:53:00.440Z,97.52
2023-05-10T01:55:33.370Z,97.86
2023-05-10T01:58:07.432Z,97.93
2023-05-10T02:00:36.678Z,97.76
2023-05-10T02:03:08.437Z,97.90
2023-05-10T02:05:43.145Z,97.75
2023-05-10T02:08:10.928Z,97.83
2023-05-10T02:10:41.740Z,98.09
2023-05-10T02:13:10.134Z,98.10
2023-05-10T02:15:38.311Z,98.17
2023-05-10T02:18:06.894Z,98.07
2023-05-10T02:20:34.490Z,98.07
2023-05-10T02:23:03.715Z,97.86
2023-05-10T02:25:31.567Z,97.34
2023-05-10T02:27:59.048Z,97.36
2023-05-10T02:30:26.354Z,97.23
2023-05-10T02:32:53.750Z,97.38
2023-05-10T02:35:21.136Z,97.24
2023-05-10T02:37:49.120Z,96.97
2023-05-10T02:40:18.863Z,97.12
2023-05-10T02:42:48.631Z,97.38
2023-05-10T02:45:21.677Z,97.50
2023-05-10T02:47:49.323Z,97.61
2023-05-10T02:50:16.343Z,97.43
2023-05-10T02:52:55.453Z,97.61
2023-05-10T02:55:33.433Z,97.64
2023-05-10T02:58:02.983Z,97.84
2023-05-10T03:00:30.159Z,97.81
2023-05-10T03:02:57.166Z,97.48
2023-05-10T03:05:24.639Z,97.49
2023-05-10T03:07:52.593Z,97.57
2023-05-10T03:10:20.195Z,97.79
2023-05-10T03:13:24.720Z,97.67
2023-05-10T03:16:09.007Z,97.77
2023-05-10T03:18:42.875Z,97.69
2023-05-10T03:21:13.631Z,97.59
2023-05-10T03:23:54.890Z,97.24
2023-05-10T03:26:26.886Z,97.37
2023-05-10T03:28:54.881Z,97.67
2023-05-10T03:31:22.104Z,97.81
2023-05-10T03:33:50.584Z,97.36
2023-05-10T03:36:18.041Z,97.35
2023-05-10T03:38:44.807Z,97.55
2023-05-10T03:41:11.748Z,97.47
2023-05-10T03:43:38.501Z,97.74
2023-05-10T03:46:06.036Z,97.76
2023-05-10T03:48:35.990Z,97.20
2023-05-10T03:51:03.101Z,96.98
2023-05-10T03:53:29.920Z,97.02
2023-05-10T03:55:56.700Z,96.96
2023-05-10T03:58:23.535Z,97.36
2023-05-10T04:00:50.360Z,97.39
2023-05-10T04:03:17.491Z,97.21
2023-05-10T04:05:44.595Z,97.09
2023-05-10T04:08:11.257Z,97.08
2023-05-10T04:10:37.996Z,97.04
2023-05-10T04:13:05.221Z,96.91
2023-05-10T04:15:32.013Z,96.97
2023-05-10T04:17:58.964Z,97.24
2023-05-10T04:20:25.730Z,96.97
2023-05-10T04:22:52.678Z,96.42
2023-05-10T04:25:19.467Z,96.49
2023-05-10T04:27:46.272Z,96.29
2023-05-10T04:30:13.231Z,96.34
2023-05-10T04:32:40.049Z,96.32
2023-05-10T04:35:07.586Z,96.40
2023-05-10T04:37:37.897Z,96.43
2023-05-10T04:40:05.730Z,96.39
2023-05-10T04:42:32.405Z,96.44
2023-05-10T04:44:59.224Z,96.45
2023-05-10T04:47:25.959Z,96.31
2023-05-10T04:49:52.796Z,95.84
2023-05-10T04:52:19.532Z,95.90
2023-05-10T04:54:47.036Z,95.43
2023-05-10T04:57:13.919Z,95.51
2023-05-10T04:59:40.640Z,95.71
2023-05-10T05:02:10.680Z,95.67
2023-05-10T05:04:37.738Z,95.63
2023-05-10T05:07:04.607Z,95.73
2023-05-10T05:09:33.132Z,95.88
2023-05-10T05:11:59.968Z,95.69
2023-05-10T05:14:26.825Z,95.26
2023-05-10T05:16:57.777Z,95.88
2023-05-10T05:19:24.983Z,95.47
2023-05-10T05:21:51.688Z,95.50
2023-05-10T05:24:18.342Z,95.41
2023-05-10T05:26:45.159Z,95.08
2023-05-10T05:29:12.010Z,94.90
2023-05-10T05:31:38.716Z,94.14
2023-05-10T05:34:05.755Z,94.11
2023-05-10T05:36:32.978Z,94.50
2023-05-10T05:38:59.899Z,94.56
2023-05-10T05:41:27.144Z,94.72
2023-05-10T05:43:54.131Z,94.72
2023-05-10T05:46:21.095Z,94.88
2023-05-10T05:48:47.950Z,93.86
2023-05-10T05:51:14.630Z,94.02
2023-05-10T05:53:41.386Z,93.39
2023-05-10T05:56:09.331Z,93.58
2023-05-10T05:58:36.179Z,93.78
2023-05-10T06:01:03.313Z,93.89
2023-05-10T06:03:30.141Z,92.94
2023-05-10T06:05:56.975Z,93.12
2023-05-10T06:08:23.841Z,92.77
2023-05-10T06:10:50.718Z,93.15
2023-05-10T06:13:17.541Z,92.88
2023-05-10T06:15:44.533Z,92.58
2023-05-10T06:18:11.321Z,92.95
2023-05-10T06:20:38.139Z,92.34
2023-05-10T06:23:04.940Z,92.53
2023-05-10T06:25:31.652Z,93.05
2023-05-10T06:27:59.153Z,93.53
2023-05-10T06:33:50.350Z,93.52
2023-05-10T06:36:17.149Z,93.47
2023-05-10T06:38:44.076Z,93.64
2023-05-10T06:41:11.040Z,93.02
2023-05-10T06:43:41.155Z,92.82
2023-05-10T06:46:08.498Z,92.98
2023-05-10T06:48:35.319Z,93.11
2023-05-10T06:51:02.227Z,93.63
2023-05-10T06:53:29.009Z,93.67
2023-05-10T06:55:55.788Z,94.40
2023-05-10T06:58:22.503Z,94.47
2023-05-10T07:00:49.371Z,94.55
2023-05-10T07:03:16.404Z,94.90
2023-05-10T07:05:43.602Z,95.32
2023-05-10T07:08:10.741Z,95.86
2023-05-10T07:10:37.617Z,96.00
2023-05-10T07:13:04.853Z,96.12
2023-05-10T07:15:32.157Z,96.17
2023-05-10T07:17:59.124Z,96.38
2023-05-10T07:20:26.173Z,96.48
2023-05-10T07:22:53.028Z,96.37
2023-05-10T07:25:19.832Z,96.49
2023-05-10T07:27:46.670Z,96.11
2023-05-10T07:30:17.119Z,96.29
2023-05-10T07:32:43.904Z,96.51
2023-05-10T07:35:10.902Z,96.39
2023-05-10T07:37:37.775Z,96.30
2023-05-10T07:40:05.091Z,96.45
2023-05-10T07:42:31.889Z,96.16
2023-05-10T07:44:58.973Z,95.78
2023-05-10T07:47:25.967Z,95.82
2023-05-10T07:49:53.000Z,95.87
2023-05-10T07:52:22.394Z,95.61
2023-05-10T07:54:49.429Z,95.77
2023-05-10T07:57:18.816Z,95.28
2023-05-10T07:59:46.467Z,95.57
2023-05-10T08:02:13.522Z,95.11
2023-05-10T08:04:40.475Z,94.96
2023-05-10T08:07:07.220Z,94.82
2023-05-10T08:09:34.470Z,94.65
2023-05-10T08:12:01.633Z,94.15
2023-05-10T08:14:30.273Z,93.44
2023-05-10T08:16:57.643Z,93.22
2023-05-10T08:19:25.172Z,94.26
2023-05-10T08:21:52.211Z,94.29
2023-05-10T08:24:19.204Z,93.63
2023-05-10T08:26:46.014Z,93.74
2023-05-10T08:29:12.871Z,93.98
2023-05-10T08:31:39.849Z,94.05
2023-05-10T08:34:06.741Z,93.72
2023-05-10T08:36:33.498Z,94.20
2023-05-10T08:39:00.591Z,93.94
2023-05-10T08:41:27.926Z,93.71
2023-05-10T08:43:55.591Z,93.72
2023-05-10T08:46:24.073Z,93.70
2023-05-10T08:48:52.800Z,93.51
2023-05-10T08:51:23.137Z,93.26
2023-05-10T08:53:49.946Z,93.73
2023-05-10T08:56:18.902Z,93.82
2023-05-10T08:58:46.309Z,94.24
2023-05-10T09:01:14.997Z,94.11
2023-05-10T09:03:42.501Z,94.24
2023-05-10T09:06:09.528Z,93.93
2023-05-10T09:08:38.202Z,92.88
2023-05-10T09:11:05.217Z,92.72
2023-05-10T09:13:32.557Z,92.81
2023-05-10T09:16:04.446Z,92.78
2023-05-10T09:18:40.641Z,91.96
2023-05-10T09:21:07.383Z,91.79
2023-05-10T09:23:34.178Z,91.38
2023-05-10T09:26:08.017Z,90.52
2023-05-10T09:28:39.338Z,90.43
2023-05-10T09:31:06.458Z,90.71
2023-05-10T09:33:45.439Z,90.75
2023-05-10T09:36:12.670Z,90.75
2023-05-10T09:38:55.544Z,89.98
2023-05-10T09:41:26.355Z,89.94
2023-05-10T09:43:57.295Z,90.47
2023-05-10T09:46:25.461Z,90.95
2023-05-10T09:48:52.546Z,91.69
2023-05-10T09:51:28.082Z,90.54
2023-05-10T09:54:11.857Z,91.16
2023-05-10T09:56:41.066Z,90.55
2023-05-10T09:59:10.794Z,90.88
2023-05-10T10:01:38.307Z,90.80
2023-05-10T10:04:09.763Z,91.36
2023-05-10T10:06:38.626Z,90.50
2023-05-10T10:09:09.071Z,90.16
2023-05-10T10:11:37.719Z,89.90
2023-05-10T10:14:05.341Z,89.73
2023-05-10T10:16:33.377Z,89.71
2023-05-10T10:19:00.467Z,89.06
2023-05-10T10:21:28.067Z,89.91
2023-05-10T10:23:55.479Z,90.27
2023-05-10T10:26:22.674Z,90.01
2023-05-10T10:29:19.710Z,89.44
2023-05-10T10:31:52.115Z,88.48
2023-05-10T10:34:32.294Z,88.11
2023-05-10T10:37:04.837Z,87.84
2023-05-10T10:39:32.120Z,87.58
2023-05-10T10:41:59.783Z,87.25
2023-05-10T10:44:35.393Z,86.04
2023-05-10T10:47:20.017Z,86.83
2023-05-10T10:49:50.848Z,86.19
2023-05-10T10:52:34.800Z,86.20
2023-05-10T10:55:02.374Z,86.32
2023-05-10T10:57:32.205Z,85.86
2023-05-10T11:00:24.011Z,84.73
2023-05-10T11:02:52.858Z,85.30
2023-05-10T11:05:34.530Z,82.50
2023-05-10T11:08:07.924Z,83.31
2023-05-10T11:10:35.044Z,82.96
2023-05-10T11:13:03.779Z,82.38
2023-05-10T11:15:36.119Z,79.77
2023-05-10T11:18:24.915Z,79.97
2023-05-10T11:21:04.488Z,81.00
2023-05-10T11:23:48.924Z,81.77
2023-05-10T11:26:15.942Z,82.38
2023-05-10T11:28:44.218Z,82.77
2023-05-10T11:31:11.433Z,82.26
2023-05-10T11:33:54.665Z,83.27
2023-05-10T11:36:26.771Z,84.22
2023-05-10T11:38:54.640Z,84.39
2023-05-10T11:41:23.206Z,84.65
2023-05-10T11:43:56.744Z,84.19
2023-05-10T11:46:25.820Z,83.63
2023-05-10T11:48:55.352Z,82.60
2023-05-10T11:51:24.867Z,82.15
2023-05-10T11:53:56.728Z,81.91
2023-05-10T11:56:24.671Z,81.50
2023-05-10T11:58:56.974Z,80.17
2023-05-10T12:01:27.788Z,76.42
2023-05-10T12:04:00.974Z,76.69
2023-05-10T12:06:33.103Z,74.86
2023-05-10T12:09:00.509Z,75.06
2023-05-10T12:11:29.268Z,74.32
2023-05-10T12:13:57.813Z,74.72
2023-05-10T12:16:29.552Z,74.64
2023-05-10T12:19:04.637Z,73.82
2023-05-10T12:21:31.967Z,73.82
2023-05-10T12:24:07.558Z,72.61
2023-05-10T12:26:39.394Z,72.55
2023-05-10T12:29:20.288Z,71.52
2023-05-10T12:31:58.787Z,71.63
2023-05-10T12:34:32.398Z,72.09
2023-05-10T12:36:59.840Z,71.99
2023-05-10T12:39:45.894Z,69.71
2023-05-10T12:42:13.057Z,68.98
2023-05-10T12:44:40.496Z,68.72
2023-05-10T12:47:07.449Z,69.23
2023-05-10T12:49:35.319Z,69.13
2023-05-10T12:52:02.219Z,70.19
2023-05-10T12:54:29.126Z,69.59
2023-05-10T12:56:56.078Z,69.52
2023-05-10T12:59:24.022Z,69.05
2023-05-10T13:01:51.203Z,68.84
2023-05-10T13:04:18.123Z,68.18
2023-05-10T13:06:44.950Z,68.92
2023-05-10T13:09:11.713Z,69.69
2023-05-10T13:11:38.741Z,69.83
2023-05-10T13:14:05.632Z,70.96
2023-05-10T13:16:32.854Z,70.11
2023-05-10T13:18:59.946Z,68.79
2023-05-10T13:21:27.125Z,69.12
2023-05-10T13:23:54.734Z,69.19
2023-05-10T13:26:21.576Z,68.19
2023-05-10T13:28:50.055Z,67.53
2023-05-10T13:31:16.853Z,67.24
2023-05-10T13:33:43.724Z,67.79
2023-05-10T13:36:10.819Z,68.15
2023-05-10T13:38:37.691Z,67.74
2023-05-10T13:41:04.709Z,66.80
2023-05-10T13:43:31.756Z,66.64
2023-05-10T13:45:58.727Z,65.86
2023-05-10T13:48:25.757Z,66.48
2023-05-10T13:50:52.546Z,67.94
2023-05-10T13:53:19.727Z,68.56
2023-05-10T13:55:46.592Z,66.25
2023-05-10T13:58:13.281Z,67.28
2023-05-10T14:00:40.193Z,69.16
2023-05-10T14:03:08.155Z,69.07
2023-05-10T14:05:35.640Z,69.03
2023-05-10T14:08:02.663Z,67.92
2023-05-10T14:10:29.678Z,67.05
2023-05-10T14:12:56.790Z,68.76
2023-05-10T14:15:23.957Z,68.89
2023-05-10T14:17:50.794Z,68.98
2023-05-10T14:20:17.862Z,68.62
2023-05-10T14:22:44.766Z,68.08
2023-05-10T14:25:11.858Z,68.52
2023-05-10T14:27:38.554Z,67.99
2023-05-10T14:30:09.495Z,67.59
2023-05-10T14:32:37.944Z,67.67
2023-05-10T14:35:05.164Z,70.51
2023-05-10T14:37:32.350Z,72.03
2023-05-10T14:39:59.368Z,70.81
2023-05-10T14:42:26.317Z,72.39
2023-05-10T14:44:53.114Z,75.30
2023-05-10T14:47:20.022Z,74.62
2023-05-10T14:49:46.713Z,75.07
2023-05-10T14:52:13.461Z,74.26
2023-05-10T14:54:40.433Z,74.69
2023-05-10T14:57:08.484Z,74.88
2023-05-10T14:59:35.509Z,74.23
2023-05-10T15:02:02.739Z,74.74
2023-05-10T15:04:29.966Z,75.31
2023-05-10T15:07:00.454Z,75.38
2023-05-10T15:09:28.777Z,76.11
2023-05-10T15:11:56.491Z,75.94
2023-05-10T15:14:23.490Z,76.10
2023-05-10T15:16:50.399Z,75.85
2023-05-10T15:19:17.169Z,75.77
2023-05-10T15:21:45.707Z,76.23
2023-05-10T15:24:12.532Z,76.33
2023-05-10T15:26:39.291Z,75.74
2023-05-10T15:29:06.046Z,77.16
2023-05-10T15:31:33.331Z,77.07
2023-05-10T15:34:02.804Z,77.12
2023-05-10T15:36:29.674Z,77.83
2023-05-10T15:38:57.153Z,79.17
2023-05-10T15:41:24.727Z,78.91
2023-05-10T15:43:51.852Z,78.91
2023-05-10T15:46:18.631Z,79.04
2023-05-10T15:48:45.490Z,79.12
2023-05-10T15:51:12.471Z,78.00
2023-05-10T15:53:46.588Z,80.26
2023-05-10T15:56:19.853Z,81.05
2023-05-10T15:58:46.695Z,82.68
2023-05-10T16:01:13.626Z,80.89
2023-05-10T16:03:40.552Z,83.10
2023-05-10T16:06:07.368Z,84.70
2023-05-10T16:08:34.416Z,83.74
2023-05-10T16:11:01.275Z,82.44
2023-05-10T16:13:29.521Z,84.61
2023-05-10T16:15:58.550Z,87.46
2023-05-10T16:18:25.640Z,88.92
2023-05-10T16:20:53.736Z,90.55
2023-05-10T16:23:20.757Z,91.24
2023-05-10T16:25:47.551Z,91.36
2023-05-10T16:28:14.358Z,91.11
2023-05-10T16:30:41.374Z,91.01
2023-05-10T16:33:08.329Z,91.47
2023-05-10T16:35:35.196Z,91.63
2023-05-10T16:38:02.126Z,90.59
2023-05-10T16:40:29.207Z,89.57
2023-05-10T16:42:56.006Z,87.70
2023-05-10T16:45:22.982Z,87.69
2023-05-10T16:47:49.949Z,86.13
2023-05-10T16:50:17.532Z,86.35
2023-05-10T16:52:44.723Z,83.61
2023-05-10T16:55:11.728Z,82.81
2023-05-10T16:57:38.641Z,77.15
2023-05-10T17:00:06.098Z,77.54
2023-05-10T17:02:33.153Z,76.89
2023-05-10T17:05:00.020Z,76.93
2023-05-10T17:07:29.093Z,76.30
2023-05-10T17:09:56.107Z,75.71
2023-05-10T17:12:22.978Z,76.05
2023-05-10T17:14:49.786Z,75.78
2023-05-10T17:17:16.768Z,76.72
2023-05-10T17:19:46.708Z,76.81
2023-05-10T17:22:14.102Z,77.31
2023-05-10T17:24:40.988Z,78.15
2023-05-10T17:27:07.885Z,81.12
2023-05-10T17:29:37.178Z,79.80
2023-05-10T17:32:05.862Z,78.44
2023-05-10T17:34:33.080Z,79.36
2023-05-10T17:36:59.919Z,81.01
2023-05-10T17:39:27.086Z,83.87
2023-05-10T17:41:54.129Z,81.63
2023-05-10T17:44:21.389Z,85.88
2023-05-10T17:46:50.957Z,85.62
2023-05-10T17:49:18.029Z,86.81
2023-05-10T17:51:47.041Z,87.62
2023-05-10T18:18:24.577Z,82.48
2023-05-10T18:20:56.725Z,84.70
2023-05-10T18:23:24.833Z,87.06
2023-05-10T18:25:54.282Z,88.24
2023-05-10T18:31:38.599Z,87.91
2023-05-10T18:34:06.095Z,88.47
2023-05-10T18:36:33.629Z,89.84
2023-05-10T18:39:00.590Z,91.23
2023-05-10T18:41:27.447Z,91.50
2023-05-10T18:43:54.653Z,91.80
2023-05-10T18:46:21.842Z,91.26
2023-05-10T18:48:48.657Z,90.72
2023-05-10T18:51:18.465Z,90.69
2023-05-10T18:53:48.071Z,90.69
2023-05-10T18:56:15.356Z,90.84
2023-05-10T18:58:42.063Z,90.98
2023-05-10T19:01:20.210Z,91.20
2023-05-10T19:03:47.059Z,91.75
2023-05-10T19:06:14.585Z,92.12
2023-05-10T19:08:41.498Z,92.09
2023-05-10T19:11:08.580Z,92.11
2023-05-10T19:13:35.530Z,92.07
2023-05-10T19:16:05.778Z,91.85
2023-05-10T19:18:37.737Z,92.00
2023-05-10T19:21:09.430Z,92.28
2023-05-10T19:23:39.743Z,92.05
2023-05-10T19:26:06.753Z,92.31
2023-05-10T19:28:46.525Z,92.58
2023-05-10T19:31:41.706Z,92.44
2023-05-10T19:34:28.064Z,92.28
2023-05-10T19:36:56.045Z,92.47
2023-05-10T19:39:32.599Z,92.44
2023-05-10T19:42:04.491Z,92.86
2023-05-10T19:45:09.395Z,92.96
2023-05-10T19:50:24.985Z,93.31
2023-05-10T19:52:58.673Z,93.41
2023-05-10T19:55:28.392Z,93.12
2023-05-10T19:58:04.894Z,93.08
2023-05-10T20:05:18.081Z,93.58
2023-05-10T20:07:48.471Z,93.72
2023-05-10T20:10:16.185Z,93.76
2023-05-10T20:12:49.815Z,94.21
2023-05-10T20:15:20.291Z,93.52
2023-05-10T20:17:59.134Z,94.33
2023-05-10T20:20:45.680Z,94.77
2023-05-10T20:26:04.926Z,95.95
2023-05-10T20:28:31.763Z,95.97
2023-05-10T20:31:08.097Z,95.66
2023-05-10T20:33:40.585Z,95.88
2023-05-10T20:36:12.330Z,95.90
2023-05-10T20:39:06.989Z,95.90
2023-05-10T20:44:29.970Z,95.68
2023-05-10T20:46:57.222Z,96.17
